createdAt,value
2022-11-16T00:00:16.815Z,99232.88
2022-11-16T00:04:18.339Z,99239.69
2022-11-16T00:08:19.840Z,99234.59
2022-11-16T00:12:21.362Z,99236.25
2022-11-16T00:16:22.920Z,99236.19
2022-11-16T00:20:24.477Z,99237.84
2022-11-16T00:24:26.014Z,99230.97
2022-11-16T00:28:28.226Z,99232.69
2022-11-16T00:32:29.752Z,99228.38
2022-11-16T00:36:31.263Z,99222.38
2022-11-16T00:40:33.219Z,99220.63
2022-11-16T00:44:34.809Z,99216.41
2022-11-16T00:48:36.593Z,99209.56
2022-11-16T00:52:38.353Z,99208.69
2022-11-16T00:56:40.463Z,99215.53
2022-11-16T01:00:42.842Z,99212.94
2022-11-16T01:04:44.421Z,99206.06
2022-11-16T01:08:46.750Z,99196.63
2022-11-16T01:12:50.065Z,99193.22
2022-11-16T01:16:51.640Z,99184.69
2022-11-16T01:20:55.104Z,99189.00
2022-11-16T01:24:56.667Z,99201.03
2022-11-16T01:28:59.572Z,99202.75
2022-11-16T01:33:04.474Z,99201.06
2022-11-16T01:37:06.258Z,99189.06
2022-11-16T01:41:16.959Z,99194.19
2022-11-16T01:45:35.195Z,99187.31
2022-11-16T01:49:52.988Z,99186.47
2022-11-16T01:54:02.570Z,99189.97
2022-11-16T01:58:06.588Z,99185.69
2022-11-16T02:02:10.236Z,99177.16
2022-11-16T02:06:27.085Z,99189.09
2022-11-16T02:11:05.743Z,99192.47
2022-11-16T02:15:14.007Z,99172.81
2022-11-16T02:19:45.498Z,99177.13
2022-11-16T02:24:15.179Z,99190.84
2022-11-16T02:28:36.118Z,99186.59
2022-11-16T02:32:44.287Z,99184.88
2022-11-16T02:36:51.284Z,99181.50
2022-11-16T02:40:58.512Z,99181.50
2022-11-16T02:45:04.398Z,99192.63
2022-11-16T02:49:16.684Z,99199.47
2022-11-16T02:53:20.495Z,99184.97
2022-11-16T02:57:32.059Z,99174.66
2022-11-16T03:01:39.061Z,99161.00
2022-11-16T03:05:52.425Z,99154.91
2022-11-16T03:09:55.284Z,99154.00
2022-11-16T03:14:11.722Z,99152.25
2022-11-16T03:18:15.454Z,99148.78
2022-11-16T03:22:31.197Z,99141.91
2022-11-16T03:26:45.815Z,99166.66
2022-11-16T03:30:52.852Z,99169.25
2022-11-16T03:35:04.375Z,99172.72
2022-11-16T03:39:12.313Z,99183.00
2022-11-16T03:43:17.053Z,99200.09
2022-11-16T03:47:19.123Z,99185.56
2022-11-16T03:51:20.899Z,99170.97
2022-11-16T03:55:22.438Z,99169.22
2022-11-16T03:59:24.064Z,99170.09
2022-11-16T04:03:25.758Z,99164.13
2022-11-16T04:07:46.713Z,99185.50
2022-11-16T04:12:09.136Z,99196.63
2022-11-16T04:16:30.777Z,99193.22
2022-11-16T04:20:52.766Z,99191.53
2022-11-16T04:24:59.346Z,99193.25
2022-11-16T04:29:01.051Z,99194.97
2022-11-16T04:33:21.474Z,99195.84
2022-11-16T04:37:41.917Z,99203.53
2022-11-16T04:42:02.261Z,99202.72
2022-11-16T04:46:24.272Z,99208.72
2022-11-16T04:50:26.014Z,99206.16
2022-11-16T04:54:27.616Z,99203.63
2022-11-16T04:58:29.222Z,99197.66
2022-11-16T05:02:30.961Z,99201.94
2022-11-16T05:06:33.777Z,99208.81
2022-11-16T05:10:38.164Z,99207.16
2022-11-16T05:14:40.210Z,99194.28
2022-11-16T05:18:43.004Z,99210.56
2022-11-16T05:22:53.715Z,99211.41
2022-11-16T05:26:56.054Z,99201.16
2022-11-16T05:30:57.830Z,99211.41
2022-11-16T05:35:02.170Z,99211.41
2022-11-16T05:39:04.295Z,99207.16
2022-11-16T05:43:08.735Z,99206.25
2022-11-16T05:47:18.683Z,99210.50
2022-11-16T05:51:20.375Z,99204.47
2022-11-16T05:55:22.442Z,99225.88
2022-11-16T05:59:24.318Z,99205.38
2022-11-16T06:03:30.485Z,99210.50
2022-11-16T06:07:34.265Z,99219.88
2022-11-16T06:11:38.018Z,99233.59
2022-11-16T06:15:40.637Z,99229.28
2022-11-16T06:19:43.592Z,99234.38
2022-11-16T06:23:46.482Z,99238.53
2022-11-16T06:27:48.192Z,99240.22
2022-11-16T06:31:52.115Z,99241.81
2022-11-16T06:35:53.925Z,99244.31
2022-11-16T06:39:58.866Z,99243.41
2022-11-16T06:44:01.825Z,99252.66
2022-11-16T06:48:08.779Z,99249.97
2022-11-16T06:52:12.001Z,99251.56
2022-11-16T06:56:16.058Z,99261.69
2022-11-16T07:00:23.268Z,99269.28
2022-11-16T07:04:25.758Z,99266.66
2022-11-16T07:08:31.862Z,99260.63
2022-11-16T07:12:33.822Z,99275.94
2022-11-16T07:16:36.806Z,99290.44
2022-11-16T07:20:40.112Z,99295.59
2022-11-16T07:24:43.259Z,99305.13
2022-11-16T07:28:48.458Z,99308.75
2022-11-16T07:32:58.533Z,99306.19
2022-11-16T07:37:35.115Z,99311.31
2022-11-16T07:41:42.441Z,99304.63
2022-11-16T07:45:53.110Z,99310.03
2022-11-16T07:49:54.617Z,99312.00
2022-11-16T07:53:59.603Z,99321.50
2022-11-16T07:58:01.230Z,99334.41
2022-11-16T08:02:03.102Z,99342.13
2022-11-16T08:06:10.979Z,99341.22
2022-11-16T08:10:13.100Z,99344.47
2022-11-16T08:14:15.701Z,99336.69
2022-11-16T08:18:17.426Z,99344.50
2022-11-16T08:22:20.202Z,99340.38
2022-11-16T08:26:22.430Z,99338.00
2022-11-16T08:30:31.742Z,99346.66
2022-11-16T08:34:34.522Z,99351.88
2022-11-16T08:38:36.419Z,99357.00
2022-11-16T08:42:43.341Z,99351.00
2022-11-16T08:46:46.366Z,99349.34
2022-11-16T08:51:18.002Z,99341.69
2022-11-16T08:55:25.769Z,99347.72
2022-11-16T08:59:27.355Z,99338.38
2022-11-16T09:03:32.761Z,99351.41
2022-11-16T09:07:34.375Z,99359.28
2022-11-16T09:11:36.097Z,99378.22
2022-11-16T09:15:37.655Z,99362.06
2022-11-16T09:19:39.167Z,99366.41
2022-11-16T09:23:40.633Z,99354.44
2022-11-16T09:27:42.188Z,99346.78
2022-11-16T09:31:43.770Z,99350.28
2022-11-16T09:35:45.363Z,99351.97
2022-11-16T09:39:46.861Z,99344.25
2022-11-16T09:44:14.674Z,99341.75
2022-11-16T09:48:17.123Z,99359.81
2022-11-16T09:52:26.798Z,99364.09
2022-11-16T09:56:31.240Z,99365.91
2022-11-16T10:00:34.910Z,99365.06
2022-11-16T10:04:58.246Z,99360.03
2022-11-16T10:09:00.358Z,99366.09
2022-11-16T10:13:11.032Z,99357.59
2022-11-16T10:17:42.949Z,99342.28
2022-11-16T10:22:29.176Z,99339.75
2022-11-16T10:26:43.362Z,99347.50
2022-11-16T10:30:59.660Z,99340.69
2022-11-16T10:35:17.025Z,99332.22
2022-11-16T10:39:20.485Z,99318.50
2022-11-16T10:43:28.631Z,99320.25
2022-11-16T10:47:44.662Z,99321.03
2022-11-16T10:51:46.260Z,99316.63
2022-11-16T10:56:01.168Z,99310.56
2022-11-16T11:00:03.571Z,99312.31
2022-11-16T11:04:26.414Z,99313.13
2022-11-16T11:08:30.679Z,99301.19
2022-11-16T11:12:38.194Z,99302.19
2022-11-16T11:16:41.408Z,99302.31
2022-11-16T11:21:07.246Z,99299.78
2022-11-16T11:25:34.637Z,99298.09
2022-11-16T11:29:38.364Z,99292.97
2022-11-16T11:33:49.052Z,99283.50
2022-11-16T11:37:53.506Z,99281.81
2022-11-16T11:42:05.591Z,99274.13
2022-11-16T11:46:16.344Z,99282.72
2022-11-16T11:50:36.857Z,99274.13
2022-11-16T11:54:46.150Z,99275.84
2022-11-16T11:58:49.074Z,99272.38
2022-11-16T12:03:09.377Z,99267.25
2022-11-16T12:07:24.380Z,99267.25
2022-11-16T12:11:48.333Z,99260.38
2022-11-16T12:16:11.681Z,99255.22
2022-11-16T12:20:37.533Z,99248.31
2022-11-16T12:24:58.183Z,99244.88
2022-11-16T12:29:26.747Z,99244.06
2022-11-16T12:33:41.507Z,99235.47
2022-11-16T12:37:49.370Z,99226.03
2022-11-16T12:42:37.086Z,99221.75
2022-11-16T12:47:04.478Z,99216.63
2022-11-16T12:51:31.562Z,99213.19
2022-11-16T12:55:44.973Z,99201.94
2022-11-16T13:00:11.412Z,99188.13
2022-11-16T13:04:19.542Z,99194.13
2022-11-16T13:08:32.416Z,99186.38
2022-11-16T13:12:36.307Z,99179.53
2022-11-16T13:16:38.382Z,99182.94
2022-11-16T13:20:58.547Z,99176.94
2022-11-16T13:25:17.082Z,99170.06
2022-11-16T13:29:35.024Z,99170.06
2022-11-16T13:33:50.744Z,99171.00
2022-11-16T13:37:52.897Z,99170.19
2022-11-16T13:42:12.520Z,99167.66
2022-11-16T13:46:27.654Z,99160.78
2022-11-16T13:50:38.619Z,99166.81
2022-11-16T13:54:46.153Z,99173.66
2022-11-16T13:58:54.963Z,99171.94
2022-11-16T14:03:26.625Z,99171.91
2022-11-16T14:07:36.721Z,99160.75
2022-11-16T14:11:39.687Z,99152.19
2022-11-16T14:15:41.208Z,99147.91
2022-11-16T14:19:49.181Z,99155.63
2022-11-16T14:23:56.347Z,99153.91
2022-11-16T14:28:13.230Z,99149.63
2022-11-16T14:32:22.709Z,99140.19
2022-11-16T14:36:40.300Z,99141.03
2022-11-16T14:40:54.837Z,99143.59
2022-11-16T14:45:16.139Z,99149.63
2022-11-16T14:49:20.358Z,99142.75
2022-11-16T14:53:22.265Z,99141.91
2022-11-16T14:57:24.181Z,99145.34
2022-11-16T15:01:31.824Z,99132.44
2022-11-16T15:05:35.235Z,99127.28
2022-11-16T15:09:43.945Z,99137.50
2022-11-16T15:13:45.843Z,99139.16
2022-11-16T15:17:59.647Z,99127.09
2022-11-16T15:22:04.072Z,99115.03
2022-11-16T15:26:05.807Z,99100.41
2022-11-16T15:30:15.061Z,99108.91
2022-11-16T15:34:18.586Z,99113.13
2022-11-16T15:38:23.490Z,99107.97
2022-11-16T15:42:27.491Z,99114.81
2022-11-16T15:46:32.770Z,99107.09
2022-11-16T15:50:34.432Z,99107.91
2022-11-16T15:54:56.855Z,99100.16
2022-11-16T15:59:01.276Z,99099.28
2022-11-16T16:03:17.020Z,99091.53
2022-11-16T16:07:39.143Z,99089.69
2022-11-16T16:11:40.890Z,99087.09
2022-11-16T16:15:42.450Z,99086.22
2022-11-16T16:19:54.675Z,99088.72
2022-11-16T16:23:56.617Z,99077.50
2022-11-16T16:27:58.796Z,99066.28
2022-11-16T16:32:00.332Z,99073.94
2022-11-16T16:36:02.036Z,99080.75
2022-11-16T16:40:03.977Z,99067.84
2022-11-16T16:44:13.619Z,99077.22
2022-11-16T16:48:15.344Z,99079.84
2022-11-16T16:52:17.090Z,99071.34
2022-11-16T16:56:19.881Z,99067.97
2022-11-16T17:00:21.447Z,99061.97
2022-11-16T17:04:23.041Z,99058.50
2022-11-16T17:08:24.673Z,99060.22
2022-11-16T17:12:26.228Z,99051.69
2022-11-16T17:16:27.766Z,99057.72
2022-11-16T17:20:29.498Z,99050.03
2022-11-16T17:24:31.040Z,99038.91
2022-11-16T17:28:32.846Z,99042.31
2022-11-16T17:32:34.389Z,99043.13
2022-11-16T17:36:36.155Z,99031.16
2022-11-16T17:40:37.731Z,99031.16
2022-11-16T17:44:39.258Z,99024.25
2022-11-16T17:48:43.214Z,99020.75
2022-11-16T17:52:44.726Z,99019.88
2022-11-16T17:56:46.190Z,99008.63
2022-11-16T18:00:49.936Z,99002.53
2022-11-16T18:04:51.648Z,98999.16
2022-11-16T18:08:53.661Z,98994.94
2022-11-16T18:12:55.216Z,98997.59
2022-11-16T18:16:56.760Z,98992.53
2022-11-16T18:20:59.816Z,98981.41
2022-11-16T18:25:01.537Z,98974.59
2022-11-16T18:29:03.182Z,98985.75
2022-11-16T18:33:04.718Z,98984.94
2022-11-16T18:37:06.356Z,98986.66
2022-11-16T18:41:14.108Z,98977.22
2022-11-16T18:45:15.625Z,98966.97
2022-11-16T18:49:17.312Z,98966.97
2022-11-16T18:53:18.832Z,98965.22
2022-11-16T18:57:20.354Z,98966.94
2022-11-16T19:01:24.237Z,98967.00
2022-11-16T19:05:25.877Z,98966.13
2022-11-16T19:09:27.805Z,98967.88
2022-11-16T19:13:29.328Z,98959.31
2022-11-16T19:17:30.837Z,98961.91
2022-11-16T19:21:32.713Z,98962.72
2022-11-16T19:25:34.220Z,98962.75
2022-11-16T19:29:35.781Z,98953.28
2022-11-16T19:33:38.189Z,98959.28
2022-11-16T19:37:39.963Z,98951.59
2022-11-16T19:41:41.504Z,98963.56
2022-11-16T19:45:43.060Z,98961.03
2022-11-16T19:49:46.166Z,98967.00
2022-11-16T19:53:47.963Z,98964.44
2022-11-16T19:57:49.595Z,98954.97
2022-11-16T20:01:51.192Z,98947.16
2022-11-16T20:05:52.801Z,98940.22
2022-11-16T20:09:54.875Z,98925.59
2022-11-16T20:13:58.136Z,98916.19
2022-11-16T20:17:59.747Z,98913.59
2022-11-16T20:22:01.417Z,98910.16
2022-11-16T20:26:08.410Z,98918.72
2022-11-16T20:30:10.496Z,98923.06
2022-11-16T20:34:15.239Z,98914.59
2022-11-16T20:38:16.756Z,98911.19
2022-11-16T20:42:19.387Z,98900.91
2022-11-16T20:46:22.695Z,98896.59
2022-11-16T20:50:24.316Z,98889.75
2022-11-16T20:54:25.830Z,98892.28
2022-11-16T20:58:27.362Z,98888.78
2022-11-16T21:02:28.920Z,98900.81
2022-11-16T21:06:31.384Z,98887.16
2022-11-16T21:10:36.261Z,98884.59
2022-11-16T21:14:37.888Z,98876.03
2022-11-16T21:18:40.201Z,98866.59
2022-11-16T21:22:42.587Z,98866.63
2022-11-16T21:26:44.079Z,98858.09
2022-11-16T21:30:58.648Z,98862.41
2022-11-16T21:35:00.206Z,98869.22
2022-11-16T21:39:01.795Z,98870.97
2022-11-16T21:43:03.398Z,98867.53
2022-11-16T21:47:04.922Z,98858.13
2022-11-16T21:51:17.864Z,98857.25
2022-11-16T21:55:19.370Z,98847.81
2022-11-16T21:59:20.872Z,98848.66
2022-11-16T22:03:24.763Z,98843.50
2022-11-16T22:07:38.424Z,98834.06
2022-11-16T22:11:39.920Z,98840.91
2022-11-16T22:15:41.411Z,98826.38
2022-11-16T22:19:42.895Z,98828.13
2022-11-16T22:23:44.433Z,98823.84
2022-11-16T22:28:13.955Z,98827.28
2022-11-16T22:32:11.011Z,98818.72
2022-11-16T22:36:13.547Z,98817.00
2022-11-16T22:40:17.895Z,98819.56
2022-11-16T22:44:19.610Z,98812.72
2022-11-16T22:48:21.124Z,98802.47
2022-11-16T22:52:22.626Z,98805.88
2022-11-16T22:56:24.774Z,98799.03
2022-11-16T23:00:26.322Z,98798.19
2022-11-16T23:04:28.184Z,98775.13
2022-11-16T23:08:29.910Z,98770.88
2022-11-16T23:12:50.141Z,98770.88
2022-11-16T23:16:52.410Z,98758.06
2022-11-16T23:21:13.218Z,98750.38
2022-11-16T23:25:33.692Z,98742.69
2022-11-16T23:29:35.249Z,98748.63
2022-11-16T23:33:45.791Z,98739.19
2022-11-16T23:38:01.022Z,98730.63
2022-11-16T23:42:21.228Z,98728.03
2022-11-16T23:46:22.729Z,98706.69
2022-11-16T23:50:24.299Z,98695.53
2022-11-16T23:54:25.854Z,98684.44
2022-11-16T23:58:27.378Z,98680.19
